METAR Data
IDs: Format: Raw Decoded Include TAF

Data at: 1242 UTC 17 Dec 2018

METAR for:KGEZ (Shelbyville Muni, IN, US)
Text:KGEZ 171153Z AUTO 26004KT 10SM CLR M01/M02 A3013 RMK AO2 SLP209 T10061022 10028 21006 53011
Temperature: -0.6°C ( 31°F)
Dewpoint: -2.2°C ( 28°F) [RH = 89%]
Pressure (altimeter):30.13 inches Hg (1020.4 mb) [Sea level pressure: 1020.9 mb]
Winds:from the W (260 degrees) at 5 MPH (4 knots; 2.1 m/s)
Visibility:10 or more sm (16+ km)
Ceiling:at least 12,000 feet AGL
Clouds:sky clear below 12,000 feet AGL
QC Flag:automated observation with no human augmentation